createdAt,value
2022-08-25T00:00:15.437Z,29.96
2022-08-25T00:02:45.546Z,29.96
2022-08-25T00:05:23.973Z,29.95
2022-08-25T00:07:50.521Z,29.93
2022-08-25T00:10:17.198Z,29.93
2022-08-25T00:12:44.051Z,29.94
2022-08-25T00:15:11.120Z,29.92
2022-08-25T00:17:37.775Z,29.93
2022-08-25T00:20:05.462Z,29.92
2022-08-25T00:22:32.023Z,29.91
2022-08-25T00:24:58.508Z,29.91
2022-08-25T00:27:25.914Z,29.91
2022-08-25T00:29:52.423Z,29.90
2022-08-25T00:32:19.651Z,29.89
2022-08-25T00:34:46.802Z,29.89
2022-08-25T00:37:13.449Z,29.90
2022-08-25T00:39:40.061Z,29.88
2022-08-25T00:42:16.142Z,29.88
2022-08-25T00:44:44.065Z,29.88
2022-08-25T00:47:10.947Z,29.88
2022-08-25T00:49:42.629Z,29.89
2022-08-25T00:52:14.356Z,29.87
2022-08-25T00:54:47.502Z,29.88
2022-08-25T00:57:25.498Z,29.88
2022-08-25T01:00:01.861Z,29.86
2022-08-25T01:02:28.452Z,29.85
2022-08-25T01:04:55.329Z,29.87
2022-08-25T01:07:23.038Z,29.86
2022-08-25T01:09:52.558Z,29.85
2022-08-25T01:12:19.358Z,29.85
2022-08-25T01:17:45.212Z,29.85
2022-08-25T01:20:12.684Z,29.84
2022-08-25T01:22:39.608Z,29.84
2022-08-25T01:25:33.973Z,29.84
2022-08-25T01:28:00.547Z,29.83
2022-08-25T01:30:27.962Z,29.83
2022-08-25T01:32:54.480Z,29.83
2022-08-25T01:35:32.052Z,29.83
2022-08-25T01:38:00.380Z,29.82
2022-08-25T01:40:27.511Z,29.81
2022-08-25T01:43:22.432Z,29.80
2022-08-25T01:45:49.535Z,29.80
2022-08-25T01:48:16.904Z,29.79
2022-08-25T01:50:44.186Z,29.79
2022-08-25T01:53:28.185Z,29.78
2022-08-25T01:56:01.871Z,29.77
2022-08-25T01:58:35.694Z,29.76
2022-08-25T02:01:09.585Z,29.76
2022-08-25T02:03:38.724Z,29.76
2022-08-25T02:06:11.182Z,29.76
2022-08-25T02:08:38.301Z,29.68
2022-08-25T02:11:05.213Z,29.57
2022-08-25T02:13:32.478Z,29.49
2022-08-25T02:16:01.110Z,29.44
2022-08-25T02:18:27.701Z,29.40
2022-08-25T02:23:33.245Z,29.38
2022-08-25T02:25:59.753Z,29.33
2022-08-25T02:28:26.436Z,29.30
2022-08-25T02:30:53.174Z,29.29
2022-08-25T02:36:09.145Z,29.24
2022-08-25T02:38:36.158Z,29.22
2022-08-25T02:41:11.901Z,29.20
2022-08-25T02:43:39.659Z,29.18
2022-08-25T02:46:06.352Z,29.16
2022-08-25T02:48:33.598Z,29.14
2022-08-25T02:51:10.465Z,29.14
2022-08-25T02:53:41.815Z,29.10
2022-08-25T02:56:10.504Z,29.07
2022-08-25T02:58:38.595Z,29.07
2022-08-25T03:01:06.908Z,29.05
2022-08-25T03:03:38.826Z,29.05
2022-08-25T03:06:11.324Z,29.01
2022-08-25T03:11:19.221Z,28.97
2022-08-25T03:13:46.319Z,28.97
2022-08-25T03:16:13.037Z,28.97
2022-08-25T03:21:22.801Z,28.94
2022-08-25T03:23:49.448Z,28.91
2022-08-25T03:26:34.543Z,28.90
2022-08-25T03:29:05.435Z,28.89
2022-08-25T03:31:44.511Z,28.87
2022-08-25T03:34:12.826Z,28.86
2022-08-25T03:36:40.007Z,28.85
2022-08-25T03:39:08.446Z,28.85
2022-08-25T03:41:35.539Z,28.82
2022-08-25T03:44:04.063Z,28.78
2022-08-25T03:46:34.537Z,28.80
2022-08-25T03:49:04.654Z,28.79
2022-08-25T03:51:33.827Z,28.75
2022-08-25T03:54:01.788Z,28.75
2022-08-25T03:56:28.393Z,28.73
2022-08-25T03:58:55.967Z,28.71
2022-08-25T04:01:23.878Z,28.71
2022-08-25T04:03:50.769Z,28.69
2022-08-25T04:06:18.690Z,28.68
2022-08-25T04:08:45.754Z,28.66
2022-08-25T04:11:24.027Z,28.64
2022-08-25T04:13:52.244Z,28.65
2022-08-25T04:19:22.301Z,28.63
2022-08-25T04:21:49.678Z,28.60
2022-08-25T04:24:16.752Z,28.59
2022-08-25T04:26:46.953Z,28.58
2022-08-25T04:29:15.108Z,28.57
2022-08-25T04:31:43.915Z,28.56
2022-08-25T04:34:28.913Z,28.53
2022-08-25T04:36:56.783Z,28.51
2022-08-25T04:39:23.610Z,28.52
2022-08-25T04:44:40.188Z,28.52
2022-08-25T04:47:06.786Z,28.51
2022-08-25T04:49:33.334Z,28.51
2022-08-25T04:52:00.125Z,28.50
2022-08-25T04:54:28.087Z,28.50
2022-08-25T04:56:58.389Z,28.48
2022-08-25T04:59:30.222Z,28.46
2022-08-25T05:01:58.774Z,28.43
2022-08-25T05:04:28.051Z,28.43
2022-08-25T05:06:56.459Z,28.41
2022-08-25T05:09:23.867Z,28.39
2022-08-25T05:11:51.992Z,28.35
2022-08-25T05:14:21.680Z,28.35
2022-08-25T05:16:53.358Z,28.35
2022-08-25T05:19:20.033Z,28.32
2022-08-25T05:21:46.556Z,28.33
2022-08-25T05:24:13.031Z,28.30
2022-08-25T05:26:39.851Z,28.29
2022-08-25T05:29:07.377Z,28.27
2022-08-25T05:31:36.430Z,28.28
2022-08-25T05:34:08.966Z,28.29
2022-08-25T05:36:35.905Z,28.28
2022-08-25T05:39:04.018Z,28.29
2022-08-25T05:41:31.180Z,28.24
2022-08-25T05:43:57.710Z,28.25
2022-08-25T05:46:25.217Z,28.24
2022-08-25T05:48:52.558Z,28.24
2022-08-25T05:51:20.148Z,28.22
2022-08-25T05:53:51.302Z,28.20
2022-08-25T05:56:18.649Z,28.20
2022-08-25T05:58:46.054Z,28.19
2022-08-25T06:01:40.183Z,28.16
2022-08-25T06:04:10.558Z,28.18
2022-08-25T06:06:39.238Z,28.17
2022-08-25T06:09:08.692Z,28.16
2022-08-25T06:11:37.257Z,28.16
2022-08-25T06:14:04.788Z,28.16
2022-08-25T06:16:31.651Z,28.13
2022-08-25T06:18:58.298Z,28.13
2022-08-25T06:21:25.413Z,28.12
2022-08-25T06:23:52.824Z,28.08
2022-08-25T06:26:21.035Z,28.07
2022-08-25T06:28:49.386Z,28.08
2022-08-25T06:31:16.018Z,28.07
2022-08-25T06:33:44.008Z,28.08
2022-08-25T06:36:10.527Z,28.07
2022-08-25T06:38:37.092Z,28.07
2022-08-25T06:41:05.433Z,28.06
2022-08-25T06:43:33.778Z,28.04
2022-08-25T06:46:18.704Z,28.03
2022-08-25T06:48:45.316Z,28.01
2022-08-25T06:51:14.791Z,28.02
2022-08-25T06:53:42.832Z,28.00
2022-08-25T06:56:10.205Z,28.01
2022-08-25T06:58:37.017Z,27.99
2022-08-25T07:01:13.440Z,28.00
2022-08-25T07:03:43.738Z,28.02
2022-08-25T07:06:10.650Z,28.03
2022-08-25T07:08:37.479Z,28.04
2022-08-25T07:11:08.470Z,28.02
2022-08-25T07:13:43.988Z,28.01
2022-08-25T07:16:11.512Z,28.00
2022-08-25T07:18:38.447Z,27.99
2022-08-25T07:21:05.131Z,28.00
2022-08-25T07:23:36.243Z,28.01
2022-08-25T07:26:36.725Z,27.98
2022-08-25T07:29:02.367Z,27.99
2022-08-25T07:31:30.188Z,28.00
2022-08-25T07:34:16.678Z,27.98
2022-08-25T07:36:44.621Z,27.98
2022-08-25T07:39:11.982Z,28.00
2022-08-25T07:41:40.865Z,28.00
2022-08-25T07:44:10.079Z,27.98
2022-08-25T07:46:36.919Z,28.00
2022-08-25T07:49:04.904Z,28.01
2022-08-25T07:51:44.138Z,28.02
2022-08-25T07:54:33.920Z,28.02
2022-08-25T07:57:05.640Z,28.02
2022-08-25T07:59:39.602Z,28.02
2022-08-25T08:02:08.410Z,28.03
2022-08-25T08:04:36.887Z,28.02
2022-08-25T08:07:03.897Z,28.02
2022-08-25T08:09:31.308Z,28.04
2022-08-25T08:11:57.850Z,28.03
2022-08-25T08:14:24.569Z,28.05
2022-08-25T08:16:51.083Z,28.06
2022-08-25T08:19:17.863Z,28.06
2022-08-25T08:21:50.676Z,28.08
2022-08-25T08:24:40.596Z,28.07
2022-08-25T08:27:07.653Z,28.10
2022-08-25T08:29:36.234Z,28.12
2022-08-25T08:32:04.616Z,28.09
2022-08-25T08:34:33.404Z,28.12
2022-08-25T08:37:00.530Z,28.16
2022-08-25T08:39:28.058Z,28.15
2022-08-25T08:42:18.466Z,28.15
2022-08-25T08:44:44.888Z,28.17
2022-08-25T08:47:40.802Z,28.17
2022-08-25T08:50:27.785Z,28.19
2022-08-25T08:53:09.184Z,28.21
2022-08-25T08:55:48.338Z,28.22
2022-08-25T08:58:26.363Z,28.24
2022-08-25T09:00:58.242Z,28.25
2022-08-25T09:03:36.077Z,28.25
2022-08-25T09:06:13.670Z,28.26
2022-08-25T09:08:44.869Z,28.26
2022-08-25T09:11:49.472Z,28.26
2022-08-25T09:14:54.573Z,28.28
2022-08-25T09:17:54.835Z,28.31
2022-08-25T09:20:51.880Z,28.36
2022-08-25T09:24:03.702Z,28.38
2022-08-25T09:26:39.719Z,28.40
2022-08-25T09:29:16.359Z,28.44
2022-08-25T09:31:44.871Z,28.47
2022-08-25T09:34:24.923Z,28.50
2022-08-25T09:36:53.449Z,28.53
2022-08-25T09:39:21.313Z,28.56
2022-08-25T09:41:56.009Z,28.59
2022-08-25T09:44:27.324Z,28.63
2022-08-25T09:46:57.370Z,28.67
2022-08-25T09:49:51.045Z,28.67
2022-08-25T09:52:32.779Z,28.70
2022-08-25T09:55:05.717Z,28.71
2022-08-25T09:57:44.081Z,28.73
2022-08-25T10:00:14.188Z,28.77
2022-08-25T10:02:41.589Z,28.79
2022-08-25T10:05:35.140Z,28.83
2022-08-25T10:08:10.256Z,28.83
2022-08-25T10:10:46.124Z,28.85
2022-08-25T10:13:17.432Z,28.88
2022-08-25T10:16:20.182Z,28.91
2022-08-25T10:19:01.226Z,28.93
2022-08-25T10:21:28.115Z,28.96
2022-08-25T10:23:58.898Z,28.99
2022-08-25T10:26:35.010Z,29.01
2022-08-25T10:29:26.479Z,29.03
2022-08-25T10:32:06.253Z,29.06
2022-08-25T10:34:51.399Z,29.07
2022-08-25T10:37:36.712Z,29.09
2022-08-25T10:40:21.756Z,29.11
2022-08-25T10:43:17.183Z,29.13
2022-08-25T10:45:52.611Z,29.14
2022-08-25T10:48:34.947Z,29.16
2022-08-25T10:51:19.665Z,29.18
2022-08-25T10:54:16.235Z,29.18
2022-08-25T10:57:01.773Z,29.21
2022-08-25T10:59:47.425Z,29.22
2022-08-25T11:02:32.270Z,29.23
2022-08-25T11:05:17.539Z,29.25
2022-08-25T11:07:58.043Z,29.26
2022-08-25T11:10:38.166Z,29.27
2022-08-25T11:13:08.306Z,29.28
2022-08-25T11:16:06.558Z,29.29
2022-08-25T11:18:35.939Z,29.31
2022-08-25T11:21:11.928Z,29.32
2022-08-25T11:23:51.110Z,29.33
2022-08-25T11:26:31.840Z,29.34
2022-08-25T11:29:12.499Z,29.35
2022-08-25T11:31:49.597Z,29.37
2022-08-25T11:34:20.399Z,29.38
2022-08-25T11:36:59.797Z,29.38
2022-08-25T11:39:33.988Z,29.38
2022-08-25T11:42:04.192Z,29.33
2022-08-25T11:44:38.205Z,29.33
2022-08-25T11:47:25.893Z,29.37
2022-08-25T11:50:00.913Z,29.40
2022-08-25T11:52:34.743Z,29.39
2022-08-25T11:55:16.603Z,29.42
2022-08-25T11:57:45.697Z,29.42
2022-08-25T12:00:44.610Z,29.43
2022-08-25T12:03:32.610Z,29.46
2022-08-25T12:06:29.504Z,29.46
2022-08-25T12:09:05.586Z,29.48
2022-08-25T12:11:37.858Z,29.49
2022-08-25T12:14:28.499Z,29.51
2022-08-25T12:16:55.138Z,29.52
2022-08-25T12:19:37.979Z,29.54
2022-08-25T12:22:04.679Z,29.55
2022-08-25T12:24:47.996Z,29.58
2022-08-25T12:27:40.262Z,29.61
2022-08-25T12:30:20.680Z,29.62
2022-08-25T12:32:50.680Z,29.66
2022-08-25T12:35:32.791Z,29.67
2022-08-25T12:38:09.040Z,29.68
2022-08-25T12:40:45.715Z,29.70
2022-08-25T12:43:37.532Z,29.72
2022-08-25T12:46:26.350Z,29.76
2022-08-25T12:49:00.491Z,29.77
2022-08-25T12:51:28.009Z,29.79
2022-08-25T12:54:11.460Z,29.83
2022-08-25T12:56:47.813Z,29.84
2022-08-25T12:59:31.560Z,29.86
2022-08-25T13:02:32.991Z,29.89
2022-08-25T13:05:05.273Z,29.92
2022-08-25T13:07:49.979Z,29.92
2022-08-25T13:10:25.933Z,29.95
2022-08-25T13:13:00.487Z,29.96
2022-08-25T13:15:41.064Z,29.98
2022-08-25T13:18:29.783Z,30.00
2022-08-25T13:21:19.560Z,30.03
2022-08-25T13:23:49.953Z,30.03
2022-08-25T13:26:23.647Z,30.04
2022-08-25T13:29:10.776Z,30.06
2022-08-25T13:31:49.960Z,30.09
2022-08-25T13:34:22.510Z,30.11
2022-08-25T13:37:08.475Z,30.11
2022-08-25T13:42:28.760Z,30.16
2022-08-25T13:44:55.836Z,30.19
2022-08-25T13:47:43.475Z,30.19
2022-08-25T13:50:18.514Z,30.22
2022-08-25T13:53:02.940Z,30.23
2022-08-25T13:55:50.769Z,30.27
2022-08-25T13:58:39.366Z,30.28
2022-08-25T14:01:49.231Z,30.30
2022-08-25T14:04:24.209Z,30.33
2022-08-25T14:07:19.396Z,30.35
2022-08-25T14:10:27.249Z,30.37
2022-08-25T14:13:30.982Z,30.39
2022-08-25T14:16:08.990Z,30.42
2022-08-25T14:18:35.947Z,30.43
2022-08-25T14:21:09.968Z,30.45
2022-08-25T14:23:38.690Z,30.47
2022-08-25T14:26:06.382Z,30.49
2022-08-25T14:28:33.475Z,30.50
2022-08-25T14:31:05.129Z,30.53
2022-08-25T14:33:43.104Z,30.54
2022-08-25T14:36:10.298Z,30.56
2022-08-25T14:38:39.027Z,30.57
2022-08-25T14:43:39.517Z,30.60
2022-08-25T14:46:18.761Z,30.60
2022-08-25T14:48:49.740Z,30.62
2022-08-25T14:51:16.593Z,30.63
2022-08-25T14:53:44.013Z,30.63
2022-08-25T14:56:10.641Z,30.64
2022-08-25T14:58:51.521Z,30.65
2022-08-25T15:01:28.480Z,30.67
2022-08-25T15:04:01.555Z,30.68
2022-08-25T15:06:28.814Z,30.68
2022-08-25T15:09:08.521Z,30.70
2022-08-25T15:11:36.556Z,30.71
2022-08-25T15:14:10.664Z,30.74
2022-08-25T15:16:41.959Z,30.74
2022-08-25T15:19:11.752Z,30.75
2022-08-25T15:21:38.638Z,30.76
2022-08-25T15:24:07.121Z,30.76
2022-08-25T15:26:40.234Z,30.77
2022-08-25T15:29:06.920Z,30.77
2022-08-25T15:31:35.506Z,30.78
2022-08-25T15:34:02.148Z,30.78
2022-08-25T15:36:29.064Z,30.79
2022-08-25T15:38:55.638Z,30.78
2022-08-25T15:41:27.070Z,30.78
2022-08-25T15:43:54.719Z,30.79
2022-08-25T15:46:24.991Z,30.79
2022-08-25T15:48:51.625Z,30.78
2022-08-25T15:51:18.921Z,30.79
2022-08-25T15:53:46.098Z,30.80
2022-08-25T15:56:26.519Z,30.79
2022-08-25T15:58:54.081Z,30.81
2022-08-25T16:01:24.831Z,30.80
2022-08-25T16:03:52.076Z,30.83
2022-08-25T16:06:19.525Z,30.81
2022-08-25T16:08:46.195Z,30.82
2022-08-25T16:11:19.163Z,30.83
2022-08-25T16:13:47.609Z,30.83
2022-08-25T16:16:16.268Z,30.83
2022-08-25T16:18:43.870Z,30.82
2022-08-25T16:21:12.808Z,30.83
2022-08-25T16:23:40.346Z,30.83
2022-08-25T16:26:09.388Z,30.83
2022-08-25T16:28:38.174Z,30.83
2022-08-25T16:31:05.738Z,30.85
2022-08-25T16:33:35.150Z,30.84
2022-08-25T16:36:09.378Z,30.84
2022-08-25T16:38:37.342Z,30.84
2022-08-25T16:41:10.878Z,30.84
2022-08-25T16:43:38.522Z,30.84
2022-08-25T16:46:08.645Z,30.85
2022-08-25T16:48:38.017Z,30.86
2022-08-25T16:51:17.123Z,30.86
2022-08-25T16:54:04.845Z,30.85
2022-08-25T16:56:34.335Z,30.85
2022-08-25T16:59:02.413Z,30.86
2022-08-25T17:01:31.258Z,30.88
2022-08-25T17:03:58.380Z,30.86
2022-08-25T17:06:27.722Z,30.86
2022-08-25T17:08:55.475Z,30.86
2022-08-25T17:11:26.791Z,30.86
2022-08-25T17:13:57.194Z,30.86
2022-08-25T17:16:27.989Z,30.84
2022-08-25T17:18:55.476Z,30.71
2022-08-25T17:21:24.352Z,30.64
2022-08-25T17:23:52.616Z,30.56
2022-08-25T17:26:19.707Z,30.46
2022-08-25T17:28:54.458Z,30.44
2022-08-25T17:31:24.092Z,30.42
2022-08-25T17:33:52.272Z,30.38
2022-08-25T17:36:19.880Z,30.33
2022-08-25T17:38:54.181Z,30.30
2022-08-25T17:41:20.942Z,30.27
2022-08-25T17:43:47.530Z,30.27
2022-08-25T17:46:15.215Z,30.17
2022-08-25T17:48:43.875Z,30.18
2022-08-25T17:51:11.320Z,30.14
2022-08-25T17:53:38.579Z,30.05
2022-08-25T17:56:08.370Z,30.05
2022-08-25T17:58:36.588Z,30.06
2022-08-25T18:01:04.230Z,30.04
2022-08-25T18:03:32.665Z,30.04
2022-08-25T18:05:59.634Z,30.01
2022-08-25T18:08:29.896Z,30.02
2022-08-25T18:11:01.876Z,29.92
2022-08-25T18:13:28.718Z,29.92
2022-08-25T18:15:55.334Z,29.85
2022-08-25T18:18:21.994Z,29.87
2022-08-25T18:20:51.115Z,29.85
2022-08-25T18:23:19.777Z,29.83
2022-08-25T18:25:48.381Z,29.82
2022-08-25T18:28:14.936Z,29.74
2022-08-25T18:30:42.421Z,29.74
2022-08-25T18:33:09.715Z,29.70
2022-08-25T18:35:36.281Z,29.66
2022-08-25T18:38:24.092Z,29.67
2022-08-25T18:40:55.806Z,29.63
2022-08-25T18:43:22.300Z,29.60
2022-08-25T18:45:48.912Z,29.58
2022-08-25T18:48:17.014Z,29.60
2022-08-25T18:50:46.858Z,29.57
2022-08-25T18:53:18.375Z,29.54
2022-08-25T18:55:58.107Z,29.51
2022-08-25T18:58:27.028Z,29.50
2022-08-25T19:00:53.534Z,29.49
2022-08-25T19:03:23.158Z,29.49
2022-08-25T19:05:57.389Z,29.43
2022-08-25T19:08:24.815Z,29.39
2022-08-25T19:10:53.541Z,29.40
2022-08-25T19:13:22.673Z,29.40
2022-08-25T19:15:51.285Z,29.34
2022-08-25T19:18:19.333Z,29.37
2022-08-25T19:20:52.874Z,29.32
2022-08-25T19:23:19.519Z,29.31
2022-08-25T19:25:46.135Z,29.33
2022-08-25T19:28:13.507Z,29.32
2022-08-25T19:30:49.932Z,29.24
2022-08-25T19:33:42.270Z,29.23
2022-08-25T19:36:08.523Z,29.22
2022-08-25T19:38:36.590Z,29.21
2022-08-25T19:41:10.590Z,29.18
2022-08-25T19:43:55.826Z,29.22
2022-08-25T19:46:32.348Z,29.20
2022-08-25T19:49:07.331Z,29.16
2022-08-25T19:51:39.166Z,29.10
2022-08-25T19:54:08.978Z,29.03
2022-08-25T19:56:36.277Z,29.07
2022-08-25T19:59:03.742Z,29.09
2022-08-25T20:01:30.595Z,29.06
2022-08-25T20:03:57.155Z,29.03
2022-08-25T20:06:23.865Z,29.11
2022-08-25T20:08:59.003Z,29.23
2022-08-25T20:11:28.909Z,29.31
2022-08-25T20:13:59.295Z,29.35
2022-08-25T20:16:29.768Z,29.38
2022-08-25T20:18:56.435Z,29.40
2022-08-25T20:21:24.022Z,29.42
2022-08-25T20:24:09.014Z,29.43
2022-08-25T20:26:36.410Z,29.45
2022-08-25T20:29:05.161Z,29.46
2022-08-25T20:31:33.431Z,29.47
2022-08-25T20:34:00.476Z,29.48
2022-08-25T20:36:29.784Z,29.49
2022-08-25T20:38:56.348Z,29.50
2022-08-25T20:41:25.842Z,29.49
2022-08-25T20:43:52.629Z,29.51
2022-08-25T20:46:19.335Z,29.52
2022-08-25T20:48:45.971Z,29.51
2022-08-25T20:51:13.178Z,29.53
2022-08-25T20:53:42.500Z,29.53
2022-08-25T20:56:10.843Z,29.54
2022-08-25T20:58:38.894Z,29.55
2022-08-25T21:01:23.058Z,29.56
2022-08-25T21:03:50.473Z,29.54
2022-08-25T21:06:17.217Z,29.54
2022-08-25T21:08:46.799Z,29.53
2022-08-25T21:11:18.148Z,29.54
2022-08-25T21:13:45.846Z,29.53
2022-08-25T21:16:12.534Z,29.55
2022-08-25T21:18:47.848Z,29.55
2022-08-25T21:21:16.663Z,29.55
2022-08-25T21:23:48.016Z,29.56
2022-08-25T21:26:23.703Z,29.57
2022-08-25T21:28:53.178Z,29.55
2022-08-25T21:31:20.777Z,29.56
2022-08-25T21:33:47.917Z,29.53
2022-08-25T21:36:16.833Z,29.56
2022-08-25T21:38:47.339Z,29.55
2022-08-25T21:41:17.105Z,29.56
2022-08-25T21:43:45.298Z,29.56
2022-08-25T21:46:16.944Z,29.56
2022-08-25T21:48:46.587Z,29.57
2022-08-25T21:51:15.894Z,29.56
2022-08-25T21:53:42.553Z,29.57
2022-08-25T21:56:17.712Z,29.56
2022-08-25T21:58:48.997Z,29.58
2022-08-25T22:01:19.490Z,29.58
2022-08-25T22:03:47.197Z,29.57
2022-08-25T22:06:14.951Z,29.57
2022-08-25T22:08:43.277Z,29.57
2022-08-25T22:11:10.661Z,29.57
2022-08-25T22:13:41.214Z,29.58
2022-08-25T22:16:11.490Z,29.59
2022-08-25T22:18:39.881Z,29.57
2022-08-25T22:21:09.668Z,29.58
2022-08-25T22:23:39.994Z,29.58
2022-08-25T22:26:11.810Z,29.56
2022-08-25T22:28:38.423Z,29.56
2022-08-25T22:31:09.991Z,29.57
2022-08-25T22:33:37.349Z,29.58
2022-08-25T22:36:37.397Z,29.57
2022-08-25T22:39:06.617Z,29.57
2022-08-25T22:41:34.165Z,29.56
2022-08-25T22:44:00.903Z,29.58
2022-08-25T22:46:32.354Z,29.56
2022-08-25T22:48:59.801Z,29.57
2022-08-25T22:51:31.450Z,29.56
2022-08-25T22:54:00.005Z,29.56
2022-08-25T22:56:30.900Z,29.55
2022-08-25T22:58:59.727Z,29.55
2022-08-25T23:01:27.224Z,29.55
2022-08-25T23:03:53.921Z,29.54
2022-08-25T23:06:24.653Z,29.55
2022-08-25T23:08:53.759Z,29.55
2022-08-25T23:11:21.862Z,29.53
2022-08-25T23:13:49.108Z,29.55
2022-08-25T23:16:16.978Z,29.54
2022-08-25T23:18:44.990Z,29.56
2022-08-25T23:21:35.123Z,29.54
2022-08-25T23:24:05.305Z,29.55
2022-08-25T23:26:33.707Z,29.53
2022-08-25T23:29:00.566Z,29.52
2022-08-25T23:31:30.017Z,29.52
2022-08-25T23:33:57.805Z,29.53
2022-08-25T23:36:24.860Z,29.52
2022-08-25T23:38:52.099Z,29.52
2022-08-25T23:41:23.479Z,29.51
2022-08-25T23:43:52.015Z,29.51
2022-08-25T23:46:21.729Z,29.51
2022-08-25T23:48:49.231Z,29.51
2022-08-25T23:51:27.263Z,29.50
2022-08-25T23:53:55.613Z,29.51
2022-08-25T23:56:23.215Z,29.51
2022-08-25T23:58:51.155Z,29.52
